createdAt,value
2017-05-22T01:27:57.617Z,30
2017-05-22T01:28:38.171Z,20
2017-05-22T01:29:18.699Z,20
2017-05-22T01:29:59.232Z,25
2017-05-22T01:30:39.792Z,20
2017-05-22T01:31:20.322Z,30
2017-05-22T01:32:00.863Z,20
2017-05-22T01:32:41.407Z,25
2017-05-22T01:33:21.942Z,25
2017-05-22T01:34:02.461Z,20
2017-05-22T01:34:42.986Z,20
2017-05-22T01:35:23.510Z,25
2017-05-22T01:36:04.049Z,20
2017-05-22T01:36:44.625Z,25
2017-05-22T01:37:25.137Z,20
2017-05-22T01:38:05.668Z,20
2017-05-22T01:38:46.210Z,20
2017-05-22T01:39:26.755Z,15
2017-05-22T01:40:07.273Z,20
2017-05-22T01:40:47.807Z,20
2017-05-22T01:41:28.357Z,25
2017-05-22T01:42:08.897Z,25
2017-05-22T01:42:49.413Z,25
2017-05-22T01:43:29.952Z,20
2017-05-22T01:44:10.503Z,20
2017-05-22T01:44:51.053Z,20
2017-05-22T01:45:31.587Z,15
2017-05-22T01:46:12.113Z,15
2017-05-22T01:46:52.654Z,25
2017-05-22T01:47:33.207Z,25
2017-05-22T01:48:13.754Z,25
2017-05-22T01:48:54.275Z,25
2017-05-22T01:49:34.836Z,20
2017-05-22T01:50:15.380Z,25
2017-05-22T01:50:55.927Z,20
2017-05-22T01:51:36.459Z,15
2017-05-22T01:52:16.993Z,20
2017-05-22T01:52:57.560Z,20
2017-05-22T01:53:38.116Z,25
2017-05-22T01:54:18.639Z,25
2017-05-22T01:54:59.175Z,20
2017-05-22T01:55:39.713Z,25
2017-05-22T01:56:20.245Z,25
2017-05-22T01:57:00.765Z,20
2017-05-22T01:57:41.288Z,0
2017-05-22T01:58:21.854Z,20
2017-05-22T01:59:02.413Z,25
2017-05-22T01:59:42.943Z,25
2017-05-22T02:00:24.481Z,20
2017-05-22T02:01:05.004Z,0
2017-05-22T02:01:45.534Z,30
2017-05-22T02:02:26.042Z,15
2017-05-22T02:03:06.567Z,30
2017-05-22T02:03:47.112Z,30
2017-05-22T02:04:27.636Z,25
2017-05-22T02:05:08.169Z,20
2017-05-22T02:05:48.735Z,20
2017-05-22T02:06:29.287Z,25
2017-05-22T02:07:09.815Z,25
2017-05-22T02:07:50.329Z,25
2017-05-22T02:08:30.856Z,15
2017-05-22T02:09:11.413Z,35
2017-05-22T02:09:51.926Z,20
2017-05-22T02:10:32.503Z,20
2017-05-22T02:11:13.016Z,20
2017-05-22T02:11:53.535Z,20
2017-05-22T02:12:34.057Z,25
2017-05-22T02:13:14.692Z,20
2017-05-22T02:13:55.237Z,25
2017-05-22T02:14:35.748Z,20
2017-05-22T02:15:16.283Z,0
2017-05-22T02:15:56.820Z,30
2017-05-22T02:16:37.362Z,30
2017-05-22T02:17:17.891Z,30
2017-05-22T02:17:58.423Z,20
2017-05-22T02:18:38.981Z,25
2017-05-22T02:19:19.526Z,20
2017-05-22T02:20:00.060Z,25
2017-05-22T02:20:41.596Z,20
2017-05-22T02:21:22.128Z,25
2017-05-22T02:22:04.667Z,20
2017-05-22T02:22:59.809Z,20
2017-05-22T02:23:40.319Z,20
2017-05-22T02:24:21.836Z,30
2017-05-22T02:25:02.377Z,25
2017-05-22T02:25:44.922Z,20
2017-05-22T02:26:25.458Z,15
2017-05-22T02:27:10.707Z,15
2017-05-22T02:28:03.050Z,20
2017-05-22T02:28:43.528Z,20
2017-05-22T02:29:24.059Z,20
2017-05-22T02:30:04.582Z,20
2017-05-22T02:30:45.102Z,20
2017-05-22T02:31:25.625Z,20
2017-05-22T02:32:07.155Z,35
2017-05-22T02:33:02.509Z,25
2017-05-22T02:33:48.004Z,30
2017-05-22T02:34:28.542Z,20
2017-05-22T02:35:14.002Z,25
2017-05-22T02:35:59.505Z,25
2017-05-22T02:36:40.014Z,30
2017-05-22T02:37:21.569Z,25
2017-05-22T02:38:08.813Z,20
2017-05-22T02:38:49.338Z,20
2017-05-22T02:39:29.869Z,25
2017-05-22T02:40:12.391Z,20
2017-05-22T03:01:52.062Z,20
2017-05-22T03:02:32.604Z,20
2017-05-22T03:03:13.149Z,20
2017-05-22T03:03:53.691Z,25
2017-05-22T03:04:34.219Z,25
2017-05-22T03:05:14.759Z,20
2017-05-22T03:05:55.305Z,20
2017-05-22T03:06:35.819Z,20
2017-05-22T03:07:16.359Z,20
2017-05-22T03:07:56.900Z,20
2017-05-22T03:08:37.414Z,25
2017-05-22T03:09:17.949Z,20
2017-05-22T03:09:58.466Z,25
2017-05-22T03:10:38.992Z,20
2017-05-22T03:11:19.566Z,20
2017-05-22T03:12:00.118Z,20
2017-05-22T03:12:40.655Z,20
2017-05-22T03:13:21.193Z,20
2017-05-22T03:14:01.726Z,20
2017-05-22T03:14:42.269Z,20
2017-05-22T03:15:22.771Z,25
2017-05-22T03:16:03.318Z,25
2017-05-22T03:16:43.823Z,20
2017-05-22T03:17:24.373Z,25
2017-05-22T03:18:04.925Z,25
2017-05-22T03:18:45.467Z,25
2017-05-22T03:19:26.009Z,20
2017-05-22T03:20:06.525Z,25
2017-05-22T03:20:47.056Z,30
2017-05-22T03:21:27.561Z,25
2017-05-22T03:22:08.090Z,25
2017-05-22T03:22:48.597Z,20
2017-05-22T03:23:29.120Z,20
2017-05-22T03:24:09.642Z,20
2017-05-22T03:24:50.204Z,25
2017-05-22T03:25:30.743Z,20
2017-05-22T03:26:11.305Z,30
2017-05-22T03:26:51.819Z,25
2017-05-22T03:27:32.351Z,20
2017-05-22T03:28:12.878Z,20
2017-05-22T03:28:53.407Z,25
2017-05-22T03:29:33.915Z,30
2017-05-22T03:30:14.436Z,25
2017-05-22T03:30:54.954Z,20
2017-05-22T03:31:35.517Z,15
2017-05-22T03:32:16.026Z,45
2017-05-22T03:32:57.563Z,20
2017-05-22T03:33:38.098Z,25
2017-05-22T03:34:18.644Z,20
2017-05-22T03:34:59.166Z,20
2017-05-22T03:35:39.698Z,20
2017-05-22T03:36:20.279Z,20
2017-05-22T03:37:00.808Z,20
2017-05-22T03:37:41.343Z,20
2017-05-22T03:38:21.887Z,20
2017-05-22T03:39:02.431Z,20
2017-05-22T03:39:42.963Z,20
2017-05-22T03:40:23.515Z,20
2017-05-22T03:41:04.037Z,20
2017-05-22T03:41:44.570Z,20
2017-05-22T03:42:25.094Z,20
2017-05-22T03:43:05.635Z,30
2017-05-22T03:43:46.197Z,25
2017-05-22T03:44:26.747Z,20
2017-05-22T03:45:07.282Z,20
2017-05-22T03:45:47.803Z,0
2017-05-22T03:46:28.334Z,20
2017-05-22T03:47:08.854Z,20
2017-05-22T03:47:49.379Z,45
2017-05-22T03:48:30.906Z,20
2017-05-22T03:49:11.455Z,25
2017-05-22T03:49:51.970Z,20
2017-05-22T03:50:32.506Z,25
2017-05-22T03:51:13.026Z,25
2017-05-22T03:51:53.547Z,20
2017-05-22T03:52:34.102Z,15
2017-05-22T03:53:14.627Z,20
2017-05-22T03:53:56.157Z,25
2017-05-22T03:54:36.674Z,20
2017-05-22T03:55:17.220Z,25
2017-05-22T03:55:57.731Z,20
2017-05-22T03:56:38.269Z,25
2017-05-22T03:57:18.815Z,20
2017-05-22T03:57:59.361Z,15
2017-05-22T03:58:39.875Z,20
2017-05-22T03:59:20.398Z,20
2017-05-22T04:00:00.918Z,20
2017-05-22T04:00:42.469Z,20
2017-05-22T04:01:22.967Z,20
2017-05-22T04:02:03.499Z,20
2017-05-22T04:02:44.046Z,20
2017-05-22T04:03:24.573Z,15
2017-05-22T04:04:05.080Z,20
2017-05-22T04:04:45.642Z,20
2017-05-22T04:05:26.176Z,20
2017-05-22T04:06:06.696Z,20
2017-05-22T04:06:47.229Z,20
2017-05-22T04:07:27.785Z,25
2017-05-22T04:08:08.305Z,20
2017-05-22T04:08:48.856Z,20
2017-05-22T04:09:29.400Z,20
2017-05-22T04:10:09.936Z,20
2017-05-22T04:10:50.458Z,20
2017-05-22T04:11:30.974Z,20
2017-05-22T04:12:11.508Z,20
2017-05-22T04:12:52.025Z,20
2017-05-22T04:13:32.556Z,20
2017-05-22T04:14:13.071Z,20
2017-05-22T04:14:53.593Z,15
2017-05-22T04:15:34.152Z,20
2017-05-22T04:16:14.707Z,20
2017-05-22T04:16:55.227Z,20
2017-05-22T04:17:35.755Z,25
2017-05-22T04:18:16.303Z,20
2017-05-22T04:18:56.875Z,20
2017-05-22T04:19:37.400Z,25
2017-05-22T04:20:17.938Z,20
2017-05-22T04:20:58.454Z,20
2017-05-22T04:21:39.003Z,20
2017-05-22T04:22:19.561Z,20
2017-05-22T04:23:00.056Z,20
2017-05-22T04:23:40.573Z,20
2017-05-22T04:24:21.101Z,25
2017-05-22T04:25:01.606Z,30
2017-05-22T04:25:42.179Z,25
2017-05-22T04:26:22.708Z,25
2017-05-22T04:27:03.306Z,20
2017-05-22T04:27:43.859Z,20
2017-05-22T04:28:24.381Z,25
2017-05-22T04:29:04.907Z,20
2017-05-22T04:29:45.451Z,20
2017-05-22T04:30:25.986Z,25
2017-05-22T04:31:06.504Z,20
2017-05-22T04:31:47.041Z,20
2017-05-22T04:32:27.593Z,25
2017-05-22T04:33:08.120Z,20
2017-05-22T04:33:48.655Z,25
2017-05-22T04:34:29.190Z,25
2017-05-22T04:35:09.739Z,20
2017-05-22T04:35:50.259Z,25
2017-05-22T04:36:30.811Z,25
2017-05-22T04:37:11.359Z,20
2017-05-22T04:37:51.911Z,25
2017-05-22T04:38:32.441Z,25
2017-05-22T04:39:12.963Z,20
2017-05-22T04:39:53.480Z,25
2017-05-22T04:40:34.008Z,25
2017-05-22T04:41:14.565Z,20
2017-05-22T04:41:55.065Z,20
2017-05-22T04:42:35.585Z,25
2017-05-22T04:43:16.091Z,20
2017-05-22T04:43:56.638Z,20
2017-05-22T04:44:37.182Z,25
2017-05-22T04:45:17.733Z,30
2017-05-22T04:45:58.258Z,25
2017-05-22T04:46:38.798Z,25
2017-05-22T04:47:19.338Z,25
2017-05-22T04:47:59.841Z,20
2017-05-22T04:48:40.359Z,20
2017-05-22T04:49:20.878Z,25
2017-05-22T04:50:01.409Z,30
2017-05-22T04:50:41.935Z,25
2017-05-22T04:51:22.466Z,25
2017-05-22T04:52:02.989Z,20
2017-05-22T04:52:43.507Z,25
2017-05-22T04:53:24.005Z,25
2017-05-22T04:54:04.528Z,25
2017-05-22T04:54:45.033Z,20
2017-05-22T04:55:25.537Z,25
2017-05-22T04:56:06.060Z,30
2017-05-22T04:56:46.629Z,30
2017-05-22T04:57:27.150Z,30
2017-05-22T04:58:08.650Z,25
2017-05-22T04:58:49.172Z,25
2017-05-22T04:59:29.686Z,30
2017-05-22T05:00:10.229Z,25
2017-05-22T05:00:50.764Z,25
2017-05-22T05:01:31.302Z,25
2017-05-22T05:02:12.221Z,20
2017-05-22T05:02:52.766Z,20
2017-05-22T05:03:33.287Z,25
2017-05-22T05:04:13.795Z,20
2017-05-22T05:04:54.315Z,25
2017-05-22T05:05:34.824Z,25
2017-05-22T05:06:15.361Z,20
2017-05-22T05:06:55.894Z,20
2017-05-22T05:07:36.417Z,25
2017-05-22T05:08:16.958Z,30
2017-05-22T05:08:57.459Z,25
2017-05-22T05:09:37.995Z,25
2017-05-22T05:10:18.496Z,30
2017-05-22T05:11:00.062Z,25
2017-05-22T05:11:40.538Z,25
2017-05-22T05:12:22.083Z,30
2017-05-22T05:13:02.596Z,25
2017-05-22T05:13:43.134Z,25
2017-05-22T05:14:23.665Z,30
2017-05-22T05:15:04.247Z,25
2017-05-22T05:15:44.759Z,25
2017-05-22T05:16:25.314Z,20
2017-05-22T05:17:05.833Z,25
2017-05-22T05:17:46.412Z,25
2017-05-22T05:18:26.915Z,30
2017-05-22T05:19:07.457Z,25
2017-05-22T05:19:47.974Z,25
2017-05-22T05:20:28.507Z,30
2017-05-22T05:21:09.038Z,25
2017-05-22T05:21:49.557Z,25
2017-05-22T05:22:30.083Z,0
2017-05-22T05:23:10.604Z,25
2017-05-22T05:23:51.134Z,25
2017-05-22T05:24:31.714Z,30
2017-05-22T05:25:12.251Z,25
2017-05-22T05:25:52.793Z,30
2017-05-22T05:26:33.341Z,0
2017-05-22T05:27:13.862Z,40
2017-05-22T05:27:54.408Z,0
2017-05-22T05:28:35.967Z,40
2017-05-22T05:29:16.484Z,30
2017-05-22T05:29:57.008Z,25
2017-05-22T05:30:37.569Z,30
2017-05-22T05:31:18.131Z,30
2017-05-22T05:31:58.637Z,20
2017-05-22T05:32:39.184Z,20
2017-05-22T05:33:19.701Z,30
2017-05-22T05:34:00.217Z,35
2017-05-22T05:34:41.783Z,25
2017-05-22T05:35:22.309Z,30
2017-05-22T05:36:02.837Z,30
2017-05-22T05:36:43.382Z,25
2017-05-22T05:37:23.935Z,30
2017-05-22T05:38:04.478Z,25
2017-05-22T05:38:44.992Z,25
2017-05-22T05:39:25.515Z,30
2017-05-22T05:40:06.048Z,30
2017-05-22T05:40:46.621Z,20
2017-05-22T05:41:27.149Z,30
2017-05-22T05:42:07.742Z,35
2017-05-22T05:42:48.302Z,25
2017-05-22T05:43:28.822Z,30
2017-05-22T05:44:09.376Z,30
2017-05-22T05:44:49.913Z,20
2017-05-22T05:45:30.453Z,30
2017-05-22T05:46:10.950Z,30
2017-05-22T05:46:51.478Z,20
2017-05-22T05:47:32.037Z,30
2017-05-22T05:48:12.607Z,30
2017-05-22T05:48:53.149Z,20
2017-05-22T05:49:33.709Z,30
2017-05-22T05:50:14.221Z,30
2017-05-22T05:50:54.745Z,20
2017-05-22T05:51:35.359Z,30
2017-05-22T05:52:15.912Z,30
2017-05-22T05:52:56.420Z,20
2017-05-22T05:53:36.952Z,20
2017-05-22T05:54:17.483Z,30
2017-05-22T05:54:58.033Z,25
2017-05-22T05:55:38.567Z,25
2017-05-22T05:56:19.092Z,30
2017-05-22T05:56:59.664Z,30
2017-05-22T05:57:40.137Z,25
2017-05-22T05:58:21.069Z,30
2017-05-22T05:59:01.611Z,30
2017-05-22T05:59:43.158Z,25
2017-05-22T06:00:23.681Z,30
2017-05-22T06:01:05.207Z,25
2017-05-22T06:01:45.732Z,30
2017-05-22T06:02:26.241Z,30
2017-05-22T06:03:07.766Z,30
2017-05-22T06:03:48.323Z,25
2017-05-22T06:04:28.860Z,30
2017-05-22T06:05:09.396Z,30
2017-05-22T06:05:49.987Z,25
2017-05-22T06:06:30.511Z,20
2017-05-22T06:07:11.089Z,25
2017-05-22T06:07:51.615Z,25
2017-05-22T06:08:32.158Z,30
2017-05-22T06:11:10.745Z,25
2017-05-22T06:11:51.272Z,30
2017-05-22T06:12:31.809Z,25
2017-05-22T06:13:12.358Z,25
2017-05-22T06:13:52.877Z,30
2017-05-22T06:14:33.396Z,30
2017-05-22T06:15:13.941Z,30
2017-05-22T06:15:54.449Z,25
2017-05-22T06:16:34.976Z,20
2017-05-22T06:17:15.532Z,30
2017-05-22T06:17:56.059Z,25
2017-05-22T06:18:36.600Z,20
2017-05-22T06:19:17.148Z,30
2017-05-22T06:19:57.720Z,25
2017-05-22T06:20:38.248Z,30
2017-05-22T06:21:18.775Z,25
2017-05-22T06:22:00.297Z,30
2017-05-22T06:22:40.813Z,30
2017-05-22T06:23:21.336Z,30
2017-05-22T06:24:01.948Z,30
2017-05-22T06:24:42.479Z,30
2017-05-22T06:25:23.007Z,30
2017-05-22T06:26:03.555Z,30
2017-05-22T06:26:44.112Z,30
2017-05-22T06:27:24.613Z,25
2017-05-22T06:28:05.213Z,20
2017-05-22T06:28:45.766Z,30
2017-05-22T06:29:27.409Z,30
2017-05-22T06:30:07.942Z,30
2017-05-22T06:30:49.466Z,30
2017-05-22T06:31:30.030Z,25
2017-05-22T06:32:10.580Z,25
2017-05-22T06:32:51.137Z,30
2017-05-22T06:33:31.684Z,30
2017-05-22T06:34:12.212Z,30
2017-05-22T06:34:52.734Z,30
2017-05-22T06:35:33.256Z,30
2017-05-22T06:36:14.815Z,25
2017-05-22T06:36:55.334Z,30
2017-05-22T06:37:35.874Z,30
2017-05-22T06:38:16.417Z,25
2017-05-22T06:38:56.933Z,30
2017-05-22T06:39:37.494Z,30
2017-05-22T06:40:18.029Z,30
2017-05-22T06:40:58.580Z,30
2017-05-22T06:41:39.080Z,30
2017-05-22T06:42:19.606Z,30
2017-05-22T06:43:00.168Z,25
2017-05-22T06:43:40.691Z,30
2017-05-22T06:44:21.224Z,30
2017-05-22T06:45:01.754Z,25
2017-05-22T06:45:42.299Z,30
2017-05-22T06:46:22.846Z,30
2017-05-22T06:47:03.400Z,50
2017-05-22T06:47:43.926Z,30
2017-05-22T06:48:24.451Z,30
2017-05-22T06:49:04.976Z,30
2017-05-22T06:49:45.500Z,25
2017-05-22T06:50:26.093Z,30
2017-05-22T06:51:06.608Z,25
2017-05-22T06:51:47.156Z,30
2017-05-22T06:52:28.091Z,30
2017-05-22T06:53:08.588Z,30
2017-05-22T06:53:49.105Z,35
2017-05-22T06:54:29.635Z,35
2017-05-22T06:55:10.160Z,35
2017-05-22T06:55:50.674Z,20
2017-05-22T06:56:31.213Z,25
2017-05-22T06:57:11.775Z,35
2017-05-22T06:57:52.307Z,30
2017-05-22T06:58:32.843Z,50
2017-05-22T06:59:13.360Z,20
2017-05-22T06:59:53.904Z,30
2017-05-22T07:00:34.425Z,30
2017-05-22T07:01:14.977Z,20
2017-05-22T07:01:55.512Z,20
2017-05-22T07:02:36.054Z,30
2017-05-22T07:03:16.587Z,30
2017-05-22T07:03:57.110Z,20
2017-05-22T07:04:37.638Z,30
2017-05-22T07:05:18.409Z,30
2017-05-22T07:05:58.918Z,35
2017-05-22T07:06:39.438Z,25
2017-05-22T07:07:19.944Z,30
2017-05-22T07:08:00.455Z,35
2017-05-22T07:08:40.972Z,20
2017-05-22T07:09:21.510Z,25
2017-05-22T07:10:02.070Z,35
2017-05-22T07:10:42.656Z,35
2017-05-22T07:11:23.197Z,35
2017-05-22T07:12:03.750Z,20
2017-05-22T07:12:44.262Z,35
2017-05-22T07:13:24.772Z,30
2017-05-22T07:14:05.323Z,20
2017-05-22T07:14:45.842Z,20
2017-05-22T07:15:26.348Z,30
2017-05-22T07:16:07.917Z,30
2017-05-22T07:16:48.439Z,20
2017-05-22T07:17:28.944Z,30
2017-05-22T07:18:09.486Z,35
2017-05-22T07:18:50.026Z,35
2017-05-22T07:19:30.585Z,35
2017-05-22T07:20:11.118Z,40
2017-05-22T07:20:51.644Z,40
2017-05-22T07:21:32.164Z,40
2017-05-22T07:22:12.694Z,35
2017-05-22T07:22:53.218Z,35
2017-05-22T07:23:33.748Z,40
2017-05-22T07:24:14.257Z,35
2017-05-22T07:24:54.767Z,35
2017-05-22T07:25:35.291Z,30
2017-05-22T07:26:15.793Z,40
2017-05-22T07:26:56.318Z,40
2017-05-22T07:27:36.846Z,40
2017-05-22T07:28:22.005Z,40
2017-05-22T07:29:02.504Z,35
2017-05-22T07:29:43.014Z,30
2017-05-22T07:30:24.562Z,30
2017-05-22T07:49:22.948Z,10
2017-05-22T07:50:03.458Z,10
2017-05-22T07:50:44.004Z,10
2017-05-22T07:51:24.554Z,30
2017-05-22T07:52:05.084Z,30
2017-05-22T07:52:45.587Z,30
2017-05-22T07:53:26.228Z,30
2017-05-22T07:54:06.742Z,25
2017-05-22T07:54:47.298Z,25
2017-05-22T07:55:27.835Z,25
2017-05-22T07:56:08.382Z,25
2017-05-22T07:56:48.894Z,25
2017-05-22T07:57:29.485Z,25
2017-05-22T07:58:10.000Z,20
2017-05-22T07:58:50.512Z,20
2017-05-22T07:59:31.038Z,15
2017-05-22T08:00:11.555Z,15
2017-05-22T08:00:52.086Z,5
2017-05-22T08:01:32.635Z,5
2017-05-22T08:02:13.169Z,0
2017-05-22T08:02:53.689Z,10
2017-05-22T08:03:34.247Z,10
2017-05-22T08:04:14.912Z,10
2017-05-22T08:04:55.439Z,10
2017-05-22T08:05:35.946Z,10
2017-05-22T08:06:16.465Z,10
2017-05-22T08:06:58.345Z,10
2017-05-22T08:07:38.869Z,10
2017-05-22T08:08:20.402Z,10
2017-05-22T08:09:01.929Z,10
2017-05-22T08:09:42.470Z,10
2017-05-22T08:10:22.995Z,10
2017-05-22T08:11:03.519Z,10
2017-05-22T08:11:44.042Z,10
2017-05-22T08:12:24.578Z,10
2017-05-22T08:13:05.120Z,10
2017-05-22T08:13:45.643Z,10
2017-05-22T08:14:26.174Z,10
2017-05-22T08:15:06.718Z,10
2017-05-22T08:15:47.260Z,10
2017-05-22T08:16:27.807Z,10
2017-05-22T08:17:09.340Z,10
2017-05-22T08:17:51.848Z,10
2017-05-22T08:18:32.361Z,10
2017-05-22T08:19:12.899Z,10
2017-05-22T08:19:53.417Z,10
2017-05-22T08:20:33.935Z,10
2017-05-22T08:21:14.457Z,10
2017-05-22T08:22:00.904Z,10
2017-05-22T08:22:41.398Z,10
2017-05-22T08:23:22.982Z,10
2017-05-22T08:24:04.531Z,10
2017-05-22T08:24:45.047Z,10
2017-05-22T08:25:36.073Z,10
2017-05-22T08:26:16.597Z,10
2017-05-22T08:26:57.117Z,10
2017-05-22T08:27:37.642Z,10
2017-05-22T08:28:18.172Z,10
2017-05-22T08:28:58.718Z,10
2017-05-22T08:29:39.269Z,10
2017-05-22T08:30:19.819Z,10
2017-05-22T08:31:00.337Z,10
2017-05-22T08:31:40.874Z,10
2017-05-22T08:32:21.422Z,10
2017-05-22T08:33:01.956Z,10
2017-05-22T08:33:42.473Z,10
2017-05-22T08:34:22.995Z,10
2017-05-22T08:35:03.528Z,10
2017-05-22T08:35:44.096Z,10
2017-05-22T08:36:24.625Z,10
2017-05-22T08:37:05.163Z,10
2017-05-22T08:37:45.686Z,10
2017-05-22T08:38:26.198Z,10
2017-05-22T08:39:06.721Z,10
2017-05-22T08:39:47.258Z,10
2017-05-22T08:40:27.797Z,10
2017-05-22T08:41:08.347Z,10
2017-05-22T08:41:48.870Z,10
2017-05-22T08:42:29.376Z,10
2017-05-22T08:43:09.895Z,10
2017-05-22T08:43:50.427Z,10
2017-05-22T08:44:30.978Z,10
2017-05-22T08:45:11.498Z,10
2017-05-22T08:45:52.050Z,10
2017-05-22T08:46:32.573Z,10
2017-05-22T08:47:13.102Z,10
2017-05-22T08:47:53.623Z,10
2017-05-22T08:48:34.153Z,10
2017-05-22T08:49:14.750Z,10
2017-05-22T08:49:55.335Z,10
2017-05-22T08:50:35.852Z,10
2017-05-22T08:51:16.389Z,10
2017-05-22T08:51:56.929Z,10
2017-05-22T08:52:37.452Z,10
2017-05-22T08:53:18.004Z,10
2017-05-22T08:53:58.526Z,10
2017-05-22T08:54:39.042Z,10
2017-05-22T08:55:19.571Z,10
2017-05-22T08:56:00.130Z,10
2017-05-22T08:56:40.652Z,10
2017-05-22T08:57:21.191Z,10
2017-05-22T08:58:01.726Z,10
2017-05-22T08:58:42.281Z,10
2017-05-22T08:59:22.834Z,10
2017-05-22T09:00:03.404Z,10
2017-05-22T09:00:43.946Z,10
2017-05-22T09:01:24.507Z,10
2017-05-22T09:02:05.041Z,10
2017-05-22T09:02:45.583Z,10
2017-05-22T09:03:26.100Z,10
2017-05-22T09:04:06.641Z,10
2017-05-22T09:04:47.190Z,10
2017-05-22T09:05:27.709Z,10
2017-05-22T09:06:08.244Z,10
2017-05-22T09:06:48.759Z,10
2017-05-22T09:07:29.306Z,10
2017-05-22T09:08:09.847Z,10
2017-05-22T09:08:50.372Z,10
2017-05-22T09:09:30.906Z,10
2017-05-22T09:10:11.455Z,10
2017-05-22T09:10:51.985Z,10
2017-05-22T09:11:32.507Z,10
2017-05-22T09:12:13.058Z,10
2017-05-22T09:12:53.581Z,10
2017-05-22T09:13:34.113Z,10
2017-05-22T09:14:14.632Z,10
2017-05-22T09:14:55.157Z,10
2017-05-22T09:15:35.672Z,10
2017-05-22T09:16:16.208Z,10
2017-05-22T09:16:56.745Z,10
2017-05-22T09:17:37.307Z,10
2017-05-22T09:18:17.802Z,10
2017-05-22T09:18:58.338Z,10
2017-05-22T09:19:38.852Z,10
2017-05-22T09:20:19.361Z,10
2017-05-22T09:20:59.900Z,10
2017-05-22T09:21:40.443Z,10
2017-05-22T09:22:22.033Z,10
2017-05-22T09:23:02.607Z,10
2017-05-22T09:23:43.136Z,10
2017-05-22T09:24:23.658Z,10
2017-05-22T09:25:04.211Z,10
2017-05-22T09:25:44.787Z,10
2017-05-22T09:26:25.387Z,10
2017-05-22T09:27:05.914Z,10
2017-05-22T09:27:46.447Z,10
2017-05-22T09:28:26.962Z,10
2017-05-22T09:29:07.479Z,10
2017-05-22T09:29:48.000Z,10
2017-05-22T09:30:28.510Z,10
2017-05-22T09:31:09.066Z,10
2017-05-22T09:31:49.593Z,10
2017-05-22T09:32:30.135Z,10
2017-05-22T09:33:10.639Z,10
2017-05-22T09:33:51.165Z,10
2017-05-22T09:34:31.733Z,10
2017-05-22T09:35:12.319Z,10
2017-05-22T09:35:52.865Z,10
2017-05-22T09:36:33.390Z,10
2017-05-22T09:37:13.928Z,10
2017-05-22T09:37:54.468Z,10
2017-05-22T09:38:34.989Z,10
2017-05-22T09:39:15.520Z,10
2017-05-22T09:39:56.042Z,10
2017-05-22T09:40:36.571Z,10
2017-05-22T09:41:17.101Z,10
2017-05-22T09:41:57.618Z,10
2017-05-22T09:42:38.140Z,10
2017-05-22T09:43:18.663Z,10
2017-05-22T09:43:59.171Z,10
2017-05-22T09:44:39.694Z,10
2017-05-22T09:45:20.206Z,10
2017-05-22T09:46:00.713Z,10
2017-05-22T09:46:41.221Z,10
2017-05-22T09:47:21.732Z,10
2017-05-22T09:48:02.277Z,10
2017-05-22T09:48:42.815Z,10
2017-05-22T09:49:23.342Z,10
2017-05-22T09:50:03.926Z,10
2017-05-22T09:50:44.476Z,10
2017-05-22T09:51:25.034Z,10
2017-05-22T09:52:05.552Z,10
2017-05-22T09:52:46.072Z,10
2017-05-22T09:53:26.644Z,10
2017-05-22T09:54:07.187Z,10
2017-05-22T09:54:47.710Z,10
2017-05-22T09:55:28.261Z,10
2017-05-22T09:56:08.786Z,10
2017-05-22T09:56:49.359Z,10
2017-05-22T09:57:29.866Z,10
2017-05-22T09:58:10.416Z,10
2017-05-22T09:58:50.948Z,10
2017-05-22T09:59:31.494Z,10
2017-05-22T10:00:12.070Z,10
2017-05-22T10:00:52.572Z,10
2017-05-22T10:01:33.120Z,10
2017-05-22T10:02:13.664Z,10
2017-05-22T10:02:54.184Z,10
2017-05-22T10:03:34.724Z,10
2017-05-22T10:04:15.249Z,90
2017-05-22T10:04:57.762Z,0
2017-05-22T10:05:44.921Z,5130
2017-05-22T10:06:27.477Z,5130
2017-05-22T10:35:38.666Z,47355
2017-05-22T10:36:19.171Z,47355
2017-05-22T10:37:00.707Z,47355
2017-05-22T10:37:42.257Z,47355
2017-05-22T10:38:22.792Z,47355
2017-05-22T10:39:03.321Z,47355
2017-05-22T10:39:55.658Z,47355
2017-05-22T10:40:37.194Z,47355
2017-05-22T10:41:28.673Z,47355
2017-05-22T10:42:09.208Z,47355
2017-05-22T10:42:49.719Z,47355
2017-05-22T10:43:30.227Z,47355
2017-05-22T10:44:10.762Z,47355
2017-05-22T10:44:51.297Z,47355
2017-05-22T10:45:37.434Z,47355
2017-05-22T10:46:19.956Z,47355
2017-05-22T10:47:05.443Z,47355
2017-05-22T10:47:45.973Z,47355
2017-05-22T10:48:26.501Z,47355
2017-05-22T10:49:07.019Z,47355
2017-05-22T10:49:47.601Z,47355
2017-05-22T10:50:28.166Z,47355
2017-05-22T10:51:08.702Z,47355
2017-05-22T10:51:49.224Z,47355
2017-05-22T10:52:29.746Z,47355
2017-05-22T10:53:10.272Z,47355
2017-05-22T10:53:50.798Z,47355
2017-05-22T10:54:31.373Z,47355
2017-05-22T10:55:11.901Z,47355
2017-05-22T10:55:52.480Z,47355
2017-05-22T10:56:33.034Z,47355
2017-05-22T10:57:13.562Z,47355
2017-05-22T10:57:54.127Z,47355
2017-05-22T10:58:34.673Z,47355
2017-05-22T10:59:15.211Z,47355
2017-05-22T10:59:55.733Z,47355
2017-05-22T11:00:36.262Z,47355
2017-05-22T11:01:16.828Z,47355
2017-05-22T11:01:58.374Z,47355
2017-05-22T11:02:38.900Z,47355
2017-05-22T11:03:19.436Z,47355
2017-05-22T11:03:59.981Z,47355
2017-05-22T11:04:40.502Z,47355
2017-05-22T11:05:21.056Z,47355
2017-05-22T11:06:01.605Z,47355
2017-05-22T11:06:42.148Z,47355
2017-05-22T11:07:22.676Z,47355
2017-05-22T11:08:03.206Z,47355
2017-05-22T11:08:43.756Z,47355
2017-05-22T11:09:24.303Z,47355
2017-05-22T11:10:04.807Z,47355
2017-05-22T11:10:45.324Z,47355
2017-05-22T11:11:27.855Z,47355
2017-05-22T11:12:20.268Z,47355
2017-05-22T11:13:00.760Z,0
2017-05-22T11:13:41.311Z,5
2017-05-22T11:14:23.898Z,5
2017-05-22T11:15:04.417Z,5
2017-05-22T11:15:44.927Z,5
2017-05-22T11:16:31.152Z,5
2017-05-22T11:17:11.678Z,5
2017-05-22T11:17:52.231Z,5
2017-05-22T11:18:32.739Z,5
2017-05-22T11:19:13.275Z,5
2017-05-22T11:19:53.832Z,1275
2017-05-22T11:20:34.361Z,42235
2017-05-22T11:21:14.889Z,42235
2017-05-22T11:21:55.431Z,42235
2017-05-22T11:22:35.961Z,42235
2017-05-22T11:23:16.513Z,42235
2017-05-22T11:23:57.042Z,42235
2017-05-22T11:24:37.584Z,42235
2017-05-22T11:25:18.101Z,42235
2017-05-22T11:25:58.618Z,42235
2017-05-22T11:26:39.163Z,42235
2017-05-22T11:27:19.756Z,42235
2017-05-22T11:28:00.204Z,42235
2017-05-22T11:28:40.744Z,42235
2017-05-22T11:29:21.257Z,42235
2017-05-22T11:30:01.806Z,42235
2017-05-22T11:30:42.332Z,42235
2017-05-22T11:31:22.852Z,42235
2017-05-22T11:34:05.836Z,24827
2017-05-22T11:34:51.448Z,24827
2017-05-22T11:35:33.993Z,24827
2017-05-22T11:36:14.599Z,24827
2017-05-22T11:36:55.132Z,24827
2017-05-22T11:37:35.702Z,24827
2017-05-22T11:38:20.828Z,24827
2017-05-22T11:39:01.358Z,24827
2017-05-22T11:39:47.677Z,24827
2017-05-22T11:40:28.179Z,24827
2017-05-22T11:41:08.712Z,24827
2017-05-22T11:41:56.153Z,24827
2017-05-22T11:42:36.679Z,24827
2017-05-22T11:43:22.868Z,24827
2017-05-22T11:44:05.389Z,24827
2017-05-22T11:44:46.920Z,24827
2017-05-22T11:45:28.469Z,24827
2017-05-22T11:46:10.002Z,24827
2017-05-22T11:46:52.548Z,24827
2017-05-22T11:47:34.053Z,24827
2017-05-22T11:48:14.600Z,24827
2017-05-22T11:48:55.118Z,24827
2017-05-22T11:49:35.722Z,24827
2017-05-22T11:50:16.258Z,24827
2017-05-22T11:50:56.966Z,24827
2017-05-22T11:51:37.597Z,24827
2017-05-22T11:52:18.130Z,24827
2017-05-22T11:52:58.656Z,24827
2017-05-22T11:53:39.420Z,24827
2017-05-22T11:54:20.022Z,24827
2017-05-22T11:55:00.515Z,24827
2017-05-22T11:55:41.050Z,24827
2017-05-22T11:56:21.554Z,24827
2017-05-22T11:57:02.110Z,24827
2017-05-22T11:57:42.569Z,24827
2017-05-22T11:58:23.159Z,24827
2017-05-22T11:59:03.689Z,24827
2017-05-22T11:59:44.238Z,24827
2017-05-22T12:00:24.765Z,24827
2017-05-22T12:01:05.620Z,24827
2017-05-22T12:01:46.170Z,24827
2017-05-22T12:02:26.797Z,24827
2017-05-22T12:03:07.320Z,24827
2017-05-22T12:03:47.878Z,24827
2017-05-22T12:04:28.447Z,24827
2017-05-22T12:05:08.980Z,24827
2017-05-22T12:05:49.539Z,24827
2017-05-22T12:06:30.080Z,24827
2017-05-22T12:07:10.651Z,24827
2017-05-22T12:07:51.257Z,24827
2017-05-22T12:08:31.841Z,24827
2017-05-22T12:09:12.456Z,24827
2017-05-22T12:09:53.005Z,24827
2017-05-22T12:10:33.559Z,24827
2017-05-22T12:11:14.234Z,24827
2017-05-22T12:11:54.863Z,24827
2017-05-22T12:12:35.414Z,24827